Terminal Aerodrome Forecast
Issued by NWS

Home | Current Version | Previous Version | Text Only | Print | Product List | Glossary Off
Versions: 1 2 3 4 5 6 7 8 9 10 11 12 13 14 15 16 17 18 19 20 21 22 23 24 25 26 27 28 29 30 31 32 33 34 35 36

000
FTUS43 KLOT 211900 AAA
TAFORD
TAF AMD
KORD 211955Z 2120/2224 17012G16KT 6SM HZ FEW015 OVC025
      TEMPO 2120/2124 SCT025 OVC035
     FM220000 16010KT P6SM BKN020 OVC035
     FM220900 15009KT P6SM OVC035
     FM221200 14013KT P6SM OVC040
     FM221800 12013KT 5SM -RASN BR SCT012 OVC018
     FM222000 15012KT 4SM RA BR OVC007=

USA.gov is the U.S. government's official web portal to all federal, state and local government web resources and services.